Terminal Aerodrome Forecast
Issued by NWS

Home | Current Version | Previous Version | Text Only | Print | Product List | Glossary On
Versions: 1 2 3 4 5 6 7 8 9 10 11 12 13 14 15 16 17 18 19 20
000
FTPQ31 PGUM 020500
TAFPQ
TAF

PTYA 020520Z 0206/0306 24013G20KT P6SM VCSH SCT016 SCT030 BKN130=

USA.gov is the U.S. government's official web portal to all federal, state and local government web resources and services.